Time;durP1;ratioP1;P1;durP2;ratioP2;P2;SDS_P1;SDS_P2;PMS_P1;PMS_P2;Temp;Humidity;BMP_temperature;BMP_pressure;BME280_temperature;BME280_humidity;BME280_pressure;Samples;Min_cycle;Max_cycle;Signal;HPM_P1;HPM_P2
2021/12/25 00:04:14;;;;;;;2.20;0.80;;;23.20;43.40;;;;;;214294;1309;26446;-54
2021/12/25 00:09:18;;;;;;;1.40;0.60;;;23.30;43.20;;;;;;214412;1315;25145;-54
2021/12/25 00:14:24;;;;;;;0.90;0.60;;;23.30;43.30;;;;;;214041;1312;22759;-53
2021/12/25 00:19:28;;;;;;;5.00;1.00;;;23.30;43.30;;;;;;213654;1312;22574;-53
2021/12/25 00:24:31;;;;;;;2.60;0.90;;;23.30;43.90;;;;;;214149;1314;26645;-52
2021/12/25 00:34:49;;;;;;;5.90;0.80;;;23.20;44.60;;;;;;214139;1314;22561;-55
2021/12/25 00:39:54;;;;;;;3.80;0.90;;;23.20;44.80;;;;;;214144;1310;25281;-53
2021/12/25 00:44:58;;;;;;;1.20;0.70;;;23.20;45.20;;;;;;214326;1315;24421;-56
2021/12/25 00:50:03;;;;;;;2.30;0.80;;;23.10;45.00;;;;;;213593;1312;24332;-52
2021/12/25 00:55:08;;;;;;;2.70;0.80;;;23.20;44.80;;;;;;214247;1309;22635;-53
2021/12/25 01:00:13;;;;;;;1.90;0.70;;;23.20;44.70;;;;;;214029;1315;22785;-51
2021/12/25 01:05:18;;;;;;;2.50;0.70;;;23.20;45.00;;;;;;213909;1313;352567;-53
2021/12/25 01:10:22;;;;;;;2.00;0.60;;;23.10;44.60;;;;;;214194;1315;22598;-51
2021/12/25 01:48:23;;;;;;;0.80;0.70;;;23.00;44.70;;;;;;214178;1309;22619;-52
2021/12/25 01:53:27;;;;;;;1.20;0.70;;;23.00;44.40;;;;;;213490;1313;22599;-55
2021/12/25 01:58:34;;;;;;;1.10;0.60;;;23.00;44.30;;;;;;214351;1309;25820;-54
2021/12/25 02:03:44;;;;;;;1.10;0.70;;;23.10;44.20;;;;;;214318;1310;24235;-53
2021/12/25 02:08:48;;;;;;;1.50;0.50;;;23.00;44.10;;;;;;214203;1310;25355;-55
2021/12/25 02:13:55;;;;;;;0.60;0.50;;;23.10;44.50;;;;;;214126;1309;22573;-52
2021/12/25 02:19:04;;;;;;;1.90;0.50;;;23.10;44.10;;;;;;213536;1312;26591;-54
2021/12/25 02:24:19;;;;;;;1.10;0.60;;;23.10;44.20;;;;;;214267;1309;22577;-55
2021/12/25 02:29:23;;;;;;;0.70;0.60;;;23.10;44.10;;;;;;213596;1312;22586;-58
2021/12/25 02:34:27;;;;;;;1.20;0.60;;;23.10;44.20;;;;;;214008;1312;22597;-55
2021/12/25 02:39:32;;;;;;;0.80;0.50;;;23.10;44.60;;;;;;214288;1314;22736;-52
2021/12/25 02:44:35;;;;;;;0.80;0.50;;;23.00;44.10;;;;;;214309;1309;24261;-53
2021/12/25 02:49:39;;;;;;;1.20;0.50;;;23.00;44.50;;;;;;213659;1313;22582;-54
2021/12/25 02:54:43;;;;;;;0.90;0.60;;;23.00;44.20;;;;;;213924;1312;23345;-52
2021/12/25 02:59:47;;;;;;;1.30;0.50;;;23.00;44.20;;;;;;213916;1309;25255;-53
2021/12/25 03:04:51;;;;;;;1.10;0.60;;;23.00;44.20;;;;;;214255;1315;22620;-54
2021/12/25 03:09:55;;;;;;;0.50;0.50;;;23.00;44.10;;;;;;214178;1309;24207;-52
2021/12/25 03:20:07;;;;;;;1.20;0.50;;;23.10;44.00;;;;;;213658;1317;22581;-54
2021/12/25 03:25:13;;;;;;;0.50;0.40;;;23.20;44.10;;;;;;213451;1312;22583;-55
2021/12/25 03:30:20;;;;;;;0.40;0.40;;;23.20;43.90;;;;;;214337;1309;22608;-51
2021/12/25 03:35:24;;;;;;;0.50;0.50;;;23.10;44.00;;;;;;214007;1309;22593;-51
2021/12/25 03:40:28;;;;;;;1.30;0.40;;;23.10;44.10;;;;;;213878;1309;22604;-51
2021/12/25 03:45:34;;;;;;;0.60;0.50;;;23.10;44.00;;;;;;214184;1314;22574;-55
2021/12/25 04:01:30;;;;;;;0.60;0.40;;;23.10;44.10;;;;;;214221;1310;24279;-55
2021/12/25 04:06:35;;;;;;;0.60;0.50;;;23.10;44.10;;;;;;213660;1312;22586;-55
2021/12/25 04:11:40;;;;;;;0.60;0.50;;;23.10;44.20;;;;;;213588;1314;22597;-53
2021/12/25 04:16:44;;;;;;;0.80;0.50;;;23.20;44.10;;;;;;213874;1313;25467;-55
2021/12/25 04:22:08;;;;;;;0.80;0.60;;;23.10;43.70;;;;;;213774;1309;24683;-53
2021/12/25 04:27:15;;;;;;;0.70;0.40;;;23.10;44.20;;;;;;213932;1309;22587;-53
2021/12/25 05:04:12;;;;;;;0.50;0.50;;;23.20;44.40;;;;;;213973;1314;22591;-51
2021/12/25 05:09:36;;;;;;;1.30;0.60;;;23.20;44.10;;;;;;214149;1309;22583;-55
2021/12/25 05:14:40;;;;;;;0.50;0.50;;;23.30;44.10;;;;;;213881;1312;24406;-55
2021/12/25 05:19:44;;;;;;;0.50;0.50;;;23.20;44.10;;;;;;214029;1312;22588;-57
2021/12/25 05:24:48;;;;;;;0.60;0.50;;;23.20;44.10;;;;;;214395;1309;23793;-55
2021/12/25 05:29:52;;;;;;;0.80;0.50;;;23.20;44.10;;;;;;214184;1309;24247;-53
2021/12/25 05:35:09;;;;;;;0.60;0.50;;;23.10;44.00;;;;;;214233;1309;22559;-51
2021/12/25 05:40:29;;;;;;;0.80;0.50;;;23.20;44.00;;;;;;213389;1313;24384;-51
2021/12/25 05:45:33;;;;;;;1.50;0.50;;;23.20;44.60;;;;;;214260;1309;25139;-52
2021/12/25 05:50:50;;;;;;;0.80;0.50;;;23.30;43.90;;;;;;214194;1309;22574;-54
2021/12/25 05:56:02;;;;;;;0.70;0.60;;;23.30;43.80;;;;;;214198;1314;22601;-56
2021/12/25 06:01:21;;;;;;;1.30;0.50;;;23.40;43.80;;;;;;214199;1309;25380;-55
2021/12/25 06:06:26;;;;;;;1.10;0.60;;;23.30;44.20;;;;;;214456;1309;22585;-55
2021/12/25 06:11:31;;;;;;;0.70;0.50;;;23.30;43.90;;;;;;214230;1312;22558;-51
2021/12/25 06:16:36;;;;;;;0.70;0.60;;;23.30;44.00;;;;;;213425;1313;24438;-54
2021/12/25 06:21:44;;;;;;;0.90;0.60;;;23.30;44.00;;;;;;214086;1316;22728;-55
2021/12/25 06:27:03;;;;;;;0.50;0.50;;;23.30;44.00;;;;;;214033;1312;23133;-54
2021/12/25 06:32:27;;;;;;;0.50;0.40;;;23.30;44.10;;;;;;214285;1309;22574;-53
2021/12/25 06:37:51;;;;;;;1.00;0.60;;;23.30;44.00;;;;;;213831;1309;24746;-53
2021/12/25 06:43:15;;;;;;;0.80;0.60;;;23.20;44.00;;;;;;214179;1309;22597;-51
2021/12/25 06:48:18;;;;;;;0.50;0.40;;;23.20;44.00;;;;;;213534;1312;24475;-52
2021/12/25 06:53:54;;;;;;;0.50;0.50;;;23.30;44.00;;;;;;213773;1313;26632;-53
2021/12/25 06:59:22;;;;;;;0.60;0.50;;;23.20;44.30;;;;;;214153;1309;23107;-55
2021/12/25 07:04:27;;;;;;;0.80;0.50;;;23.20;43.90;;;;;;214248;1309;22577;-54
2021/12/25 07:09:47;;;;;;;1.30;0.70;;;23.20;44.00;;;;;;214214;1310;24460;-52
2021/12/25 07:15:04;;;;;;;0.90;0.50;;;23.30;44.00;;;;;;214043;1309;22644;-55
2021/12/25 07:20:18;;;;;;;0.90;0.60;;;23.30;44.10;;;;;;213630;1313;22606;-57
2021/12/25 07:25:46;;;;;;;1.20;0.60;;;23.30;43.70;;;;;;213781;1312;26530;-54
2021/12/25 07:31:00;;;;;;;0.80;0.50;;;23.30;43.80;;;;;;214389;1310;22571;-56
2021/12/25 07:36:04;;;;;;;0.80;0.60;;;23.40;43.80;;;;;;214387;1309;22703;-54
2021/12/25 07:41:08;;;;;;;1.70;0.60;;;23.40;43.90;;;;;;213532;1312;22590;-55
2021/12/25 07:46:14;;;;;;;1.20;0.60;;;23.40;44.60;;;;;;214248;1309;22577;-53
2021/12/25 07:51:17;;;;;;;1.20;0.70;;;23.30;44.10;;;;;;213724;1312;22703;-55
2021/12/25 07:56:26;;;;;;;0.70;0.60;;;23.30;44.10;;;;;;214298;1310;25499;-55
2021/12/25 08:01:32;;;;;;;0.90;0.70;;;23.30;44.60;;;;;;213801;1312;24309;-55
2021/12/25 08:06:39;;;;;;;1.70;0.80;;;23.30;44.10;;;;;;214022;1312;25228;-52
2021/12/25 08:11:43;;;;;;;2.30;1.10;;;23.40;44.00;;;;;;214252;1309;23265;-53
2021/12/25 08:16:57;;;;;;;3.40;1.20;;;23.50;44.00;;;;;;213990;1309;25827;-56
2021/12/25 08:22:04;;;;;;;2.80;1.20;;;23.50;44.00;;;;;;213991;1309;22646;-52
2021/12/25 08:27:27;;;;;;;2.50;1.30;;;23.50;44.40;;;;;;213527;1312;25367;-56
2021/12/25 08:32:55;;;;;;;4.50;1.50;;;23.50;44.00;;;;;;214202;1314;22676;-54
2021/12/25 08:38:31;;;;;;;2.80;1.20;;;23.60;44.30;;;;;;213481;1311;22570;-54
2021/12/25 08:43:45;;;;;;;4.90;1.40;;;23.70;44.00;;;;;;213886;1315;25569;-56
2021/12/25 08:48:49;;;;;;;9.70;1.60;;;23.70;43.80;;;;;;214300;1309;23256;-53
2021/12/25 08:53:52;;;;;;;1.50;1.00;;;23.70;43.90;;;;;;214131;1309;22577;-56
2021/12/25 08:58:56;;;;;;;2.20;1.10;;;23.70;43.90;;;;;;213659;1311;25792;-54
2021/12/25 09:04:00;;;;;;;2.70;0.90;;;23.50;44.30;;;;;;213688;1309;444636;-54
2021/12/25 09:09:06;;;;;;;2.00;1.10;;;23.50;44.40;;;;;;214159;1309;22607;-57
2021/12/25 09:14:12;;;;;;;2.40;1.20;;;23.60;44.40;;;;;;213919;1312;24336;-55
2021/12/25 09:19:18;;;;;;;2.40;1.40;;;23.50;44.50;;;;;;214020;1309;22609;-52
2021/12/25 09:24:25;;;;;;;17.40;1.80;;;23.60;44.50;;;;;;213562;1309;24247;-52
2021/12/25 09:29:28;;;;;;;5.70;1.10;;;23.70;45.10;;;;;;213452;1312;24778;-56
2021/12/25 09:34:32;;;;;;;4.90;1.20;;;23.90;44.40;;;;;;214233;1309;24406;-51
2021/12/25 09:39:40;;;;;;;8.50;1.30;;;23.90;44.20;;;;;;214065;1309;24675;-56
2021/12/25 09:44:44;;;;;;;2.80;1.40;;;23.90;44.00;;;;;;214043;1309;23200;-53
2021/12/25 09:49:53;;;;;;;7.90;2.00;;;23.90;44.20;;;;;;213833;1310;22566;-52
2021/12/25 09:54:57;;;;;;;5.20;1.90;;;23.90;44.20;;;;;;213962;1309;22602;-54
2021/12/25 10:00:13;;;;;;;5.30;1.90;;;23.80;44.40;;;;;;214024;1307;22790;-54
2021/12/25 10:05:28;;;;;;;8.40;1.70;;;23.80;45.10;;;;;;214219;1309;23022;-54
2021/12/25 10:10:39;;;;;;;5.50;1.50;;;23.90;45.70;;;;;;213794;1311;24329;-53
2021/12/25 10:15:43;;;;;;;7.40;1.70;;;23.90;45.80;;;;;;214293;1309;26555;-53
2021/12/25 10:20:46;;;;;;;4.70;1.90;;;23.80;46.10;;;;;;214302;1309;25492;-54
2021/12/25 10:25:55;;;;;;;3.20;1.40;;;23.80;45.50;;;;;;214163;1309;25515;-53
2021/12/25 10:31:13;;;;;;;4.90;1.30;;;23.70;45.60;;;;;;214434;1309;23254;-53
2021/12/25 10:36:33;;;;;;;4.90;1.80;;;23.60;45.40;;;;;;214317;1309;22665;-56
2021/12/25 10:42:02;;;;;;;6.80;2.00;;;23.60;45.10;;;;;;214251;1309;24624;-52
2021/12/25 10:47:27;;;;;;;6.30;1.70;;;23.60;45.40;;;;;;214241;1309;24394;-54
2021/12/25 10:52:44;;;;;;;6.70;2.10;;;23.40;45.10;;;;;;214296;1309;22844;-51
2021/12/25 10:57:49;;;;;;;4.90;2.00;;;23.20;45.70;;;;;;214157;1309;22628;-51
2021/12/25 11:02:57;;;;;;;12.10;2.10;;;23.10;45.70;;;;;;213832;1311;26705;-52
2021/12/25 11:08:04;;;;;;;4.40;1.80;;;23.00;45.40;;;;;;214529;1309;25224;-51
2021/12/25 11:13:24;;;;;;;12.80;2.20;;;22.90;45.60;;;;;;214295;1309;22580;-56
2021/12/25 11:18:29;;;;;;;7.40;2.10;;;22.90;45.40;;;;;;214323;1310;22590;-55
2021/12/25 11:23:34;;;;;;;12.60;2.20;;;22.90;46.20;;;;;;213548;1312;22564;-52
2021/12/25 11:28:38;;;;;;;9.10;2.00;;;22.80;45.40;;;;;;214091;1312;24409;-53
2021/12/25 11:33:43;;;;;;;5.00;2.20;;;22.80;45.70;;;;;;214493;1309;23031;-50
2021/12/25 11:38:46;;;;;;;7.10;2.30;;;22.70;45.40;;;;;;213731;1311;22586;-50
2021/12/25 11:43:51;;;;;;;5.10;1.70;;;22.70;45.60;;;;;;214170;1312;22580;-53
2021/12/25 11:49:10;;;;;;;10.60;3.00;;;22.70;45.30;;;;;;214412;1309;22593;-52
2021/12/25 11:59:50;;;;;;;9.90;2.60;;;22.50;46.20;;;;;;214341;1309;24367;-54
2021/12/25 12:05:16;;;;;;;11.10;4.00;;;22.40;46.80;;;;;;214109;1309;22732;-53
2021/12/25 12:10:20;;;;;;;7.50;3.60;;;22.40;43.70;;;;;;213844;1309;24394;-53
2021/12/25 12:16:04;;;;;;;9.30;3.60;;;22.70;43.10;;;;;;214459;1313;22574;-54
2021/12/25 12:21:39;;;;;;;8.60;3.50;;;23.10;42.50;;;;;;213893;1309;22722;-52
2021/12/25 12:26:44;;;;;;;8.20;3.40;;;23.30;42.70;;;;;;213639;1312;22623;-58
2021/12/25 12:31:48;;;;;;;6.60;3.20;;;23.40;42.30;;;;;;214427;1309;22585;-55
2021/12/25 12:36:53;;;;;;;7.60;3.20;;;23.60;42.10;;;;;;214279;1314;25329;-53
2021/12/25 12:42:00;;;;;;;6.30;3.30;;;23.60;42.10;;;;;;213617;1312;25507;-54
2021/12/25 12:47:14;;;;;;;7.80;3.30;;;23.60;42.10;;;;;;214442;1309;22634;-54
2021/12/25 12:52:26;;;;;;;5.30;3.10;;;23.60;42.30;;;;;;214250;1310;24283;-52
2021/12/25 12:57:33;;;;;;;6.30;3.00;;;23.50;42.40;;;;;;214387;1309;25527;-54
2021/12/25 13:02:44;;;;;;;7.10;3.40;;;23.50;42.80;;;;;;214316;1309;25576;-56
2021/12/25 13:07:50;;;;;;;7.00;2.90;;;23.50;42.60;;;;;;214175;1309;24257;-59
2021/12/25 13:13:11;;;;;;;5.30;2.90;;;23.50;42.60;;;;;;213901;1311;22596;-55
2021/12/25 13:18:27;;;;;;;5.00;3.10;;;23.50;42.60;;;;;;214249;1309;22648;-56
2021/12/25 13:23:37;;;;;;;6.00;3.20;;;23.50;42.70;;;;;;214249;1309;22794;-57
2021/12/25 13:28:51;;;;;;;5.10;2.90;;;23.50;42.80;;;;;;214288;1309;22768;-54
2021/12/25 13:33:58;;;;;;;5.10;3.20;;;23.40;42.70;;;;;;214291;1309;22588;-55
2021/12/25 13:39:08;;;;;;;6.20;2.90;;;23.50;42.70;;;;;;213722;1311;24801;-56
2021/12/25 13:44:23;;;;;;;6.60;3.30;;;23.40;42.70;;;;;;214238;1309;22590;-54
2021/12/25 13:49:45;;;;;;;5.20;3.20;;;23.40;43.10;;;;;;213829;1312;22569;-54
2021/12/25 13:55:06;;;;;;;7.00;3.20;;;23.50;42.60;;;;;;214200;1309;22593;-58
2021/12/25 14:00:13;;;;;;;5.90;3.60;;;23.50;42.50;;;;;;213726;1312;25326;-56
2021/12/25 14:05:19;;;;;;;4.20;2.50;;;23.60;42.40;;;;;;214306;1309;22559;-56
2021/12/25 14:10:26;;;;;;;5.60;3.30;;;23.60;42.30;;;;;;213672;1312;26760;-57
2021/12/25 14:15:33;;;;;;;6.10;3.60;;;23.60;42.30;;;;;;214254;1309;26967;-54
2021/12/25 14:20:40;;;;;;;5.70;3.20;;;23.50;42.30;;;;;;214339;1309;22580;-56
2021/12/25 14:26:00;;;;;;;5.70;2.90;;;23.50;42.40;;;;;;214522;1309;22567;-56
2021/12/25 14:31:13;;;;;;;5.90;3.60;;;23.50;42.40;;;;;;214310;1309;25637;-52
2021/12/25 14:36:17;;;;;;;4.80;3.10;;;23.50;42.40;;;;;;214223;1312;22563;-54
2021/12/25 14:41:40;;;;;;;5.90;3.20;;;23.50;42.40;;;;;;214371;1312;25779;-53
2021/12/25 14:46:45;;;;;;;5.60;3.30;;;23.40;42.50;;;;;;213660;1312;24286;-53
2021/12/25 14:51:48;;;;;;;5.60;3.30;;;23.50;43.00;;;;;;214229;1312;25309;-56
2021/12/25 14:56:55;;;;;;;5.60;3.30;;;23.40;42.50;;;;;;214125;1312;24141;-57
2021/12/25 15:02:01;;;;;;;5.80;3.30;;;23.40;42.40;;;;;;214166;1312;22584;-54
2021/12/25 15:07:08;;;;;;;6.20;3.50;;;23.40;42.50;;;;;;214276;1309;25271;-55
2021/12/25 15:12:21;;;;;;;5.50;3.50;;;23.50;42.40;;;;;;214377;1309;25564;-56
2021/12/25 15:17:28;;;;;;;6.50;4.30;;;23.50;42.10;;;;;;213975;1312;24290;-55
2021/12/25 15:22:32;;;;;;;7.30;4.80;;;23.50;42.00;;;;;;214182;1312;22600;-57
2021/12/25 15:27:39;;;;;;;7.00;5.00;;;23.60;41.90;;;;;;214165;1309;22641;-55
2021/12/25 15:32:47;;;;;;;7.60;4.80;;;23.60;42.00;;;;;;214434;1309;22635;-56
2021/12/25 15:37:51;;;;;;;7.40;4.90;;;23.50;42.00;;;;;;214315;1314;22697;-54
2021/12/25 15:42:55;;;;;;;8.30;5.50;;;23.50;41.90;;;;;;214252;1317;22564;-56
2021/12/25 15:47:59;;;;;;;8.50;5.10;;;23.50;42.00;;;;;;214192;1311;26695;-56
2021/12/25 15:53:04;;;;;;;7.70;4.80;;;23.40;42.10;;;;;;214284;1312;22748;-56
2021/12/25 15:58:13;;;;;;;7.60;5.20;;;23.40;42.30;;;;;;214393;1314;26634;-55
2021/12/25 16:03:18;;;;;;;7.30;5.40;;;23.40;42.40;;;;;;214421;1309;24234;-56
2021/12/25 16:08:21;;;;;;;7.80;5.50;;;23.40;42.00;;;;;;214242;1309;22803;-55
2021/12/25 16:13:25;;;;;;;9.40;5.90;;;23.40;42.00;;;;;;214377;1315;22596;-55
2021/12/25 16:18:33;;;;;;;8.30;6.00;;;23.40;41.90;;;;;;214613;1309;22561;-55
2021/12/25 16:23:40;;;;;;;9.00;6.10;;;23.50;41.80;;;;;;214394;1310;25524;-55
2021/12/25 16:28:44;;;;;;;9.60;6.20;;;23.40;42.10;;;;;;214325;1309;25492;-52
2021/12/25 16:33:47;;;;;;;8.80;6.20;;;23.50;42.10;;;;;;214245;1309;24333;-56
2021/12/25 16:38:51;;;;;;;9.60;6.90;;;23.50;41.70;;;;;;214121;1312;25516;-54
2021/12/25 16:43:58;;;;;;;9.00;6.00;;;23.50;41.50;;;;;;214219;1310;24060;-54
2021/12/25 16:49:07;;;;;;;9.20;6.20;;;23.50;41.60;;;;;;214430;1309;23953;-55
2021/12/25 16:54:13;;;;;;;;;;;23.50;41.90;;;;;;213768;1316;22551;-54
2021/12/25 16:59:18;;;;;;;9.50;6.80;;;23.50;41.50;;;;;;214111;1313;22982;-56
2021/12/25 17:04:23;;;;;;;9.70;6.40;;;23.40;41.50;;;;;;212431;1309;2733646;-57
2021/12/25 17:09:28;;;;;;;9.90;6.70;;;23.40;41.50;;;;;;214399;1310;24277;-53
2021/12/25 17:14:32;;;;;;;10.70;6.90;;;23.40;41.50;;;;;;214183;1312;22573;-54
2021/12/25 17:19:35;;;;;;;10.40;6.70;;;23.40;41.50;;;;;;214164;1309;25616;-56
2021/12/25 17:24:39;;;;;;;10.20;7.10;;;23.30;41.50;;;;;;214147;1312;24407;-56
2021/12/25 17:29:43;;;;;;;11.30;7.70;;;23.40;41.50;;;;;;214239;1309;22562;-56
2021/12/25 17:34:47;;;;;;;11.50;7.90;;;23.40;41.60;;;;;;214224;1314;25341;-52
2021/12/25 17:39:53;;;;;;;13.70;7.70;;;23.40;41.80;;;;;;213481;1316;22659;-53
2021/12/25 17:44:58;;;;;;;11.80;8.00;;;23.30;41.70;;;;;;214401;1310;25542;-53
2021/12/25 17:50:03;;;;;;;11.50;7.70;;;23.30;41.40;;;;;;214222;1309;23687;-54
2021/12/25 17:55:09;;;;;;;12.80;8.70;;;23.40;41.30;;;;;;214281;1316;24273;-53
2021/12/25 18:00:20;;;;;;;12.70;8.80;;;23.40;41.50;;;;;;214210;1312;26889;-54
2021/12/25 18:05:25;;;;;;;13.90;9.00;;;23.40;41.40;;;;;;214417;1315;25647;-54
2021/12/25 18:10:28;;;;;;;13.80;9.60;;;23.50;41.10;;;;;;214147;1316;24314;-55
2021/12/25 18:15:33;;;;;;;16.60;10.80;;;23.40;41.20;;;;;;214258;1310;24377;-54
2021/12/25 18:20:41;;;;;;;16.10;10.30;;;23.40;41.20;;;;;;214217;1309;25775;-54
2021/12/25 18:26:10;;;;;;;16.70;11.10;;;23.40;41.10;;;;;;214230;1315;22576;-55
2021/12/25 18:31:25;;;;;;;17.00;11.10;;;23.40;41.10;;;;;;214329;1312;22792;-53
2021/12/25 18:36:29;;;;;;;17.80;12.40;;;23.40;41.10;;;;;;214125;1314;22965;-57
2021/12/25 18:41:32;;;;;;;18.80;12.20;;;23.30;41.00;;;;;;214168;1313;22633;-56
2021/12/25 18:46:37;;;;;;;19.00;12.70;;;23.40;41.10;;;;;;214386;1309;22566;-56
2021/12/25 18:51:42;;;;;;;20.50;13.40;;;23.30;41.10;;;;;;214226;1310;26042;-55
2021/12/25 18:56:47;;;;;;;20.50;12.60;;;23.30;40.90;;;;;;214375;1309;24302;-57
2021/12/25 19:01:52;;;;;;;23.10;14.20;;;23.30;40.90;;;;;;214269;1315;22593;-55
2021/12/25 19:06:58;;;;;;;23.40;14.50;;;23.30;41.00;;;;;;214212;1309;22599;-54
2021/12/25 19:12:02;;;;;;;24.00;14.80;;;23.30;40.80;;;;;;214297;1315;22651;-56
2021/12/25 19:17:07;;;;;;;22.40;14.80;;;23.30;40.80;;;;;;213967;1315;22605;-56
2021/12/25 19:22:11;;;;;;;23.40;15.50;;;23.30;40.70;;;;;;214480;1314;24315;-59
2021/12/25 19:27:16;;;;;;;24.30;14.80;;;23.40;40.70;;;;;;214241;1315;22783;-56
2021/12/25 19:32:20;;;;;;;24.00;16.00;;;23.40;41.00;;;;;;214436;1310;22579;-57
2021/12/25 19:37:24;;;;;;;22.40;14.40;;;23.40;40.50;;;;;;214684;1315;25481;-54
2021/12/25 19:42:29;;;;;;;23.60;15.70;;;23.40;40.80;;;;;;214507;1315;22668;-51
2021/12/25 19:47:36;;;;;;;24.00;16.10;;;23.40;40.60;;;;;;214684;1315;22577;-53
2021/12/25 19:52:45;;;;;;;22.60;14.60;;;23.30;40.60;;;;;;214332;1312;25303;-56
2021/12/25 19:57:51;;;;;;;28.20;17.60;;;23.30;40.60;;;;;;214452;1315;24254;-54
2021/12/25 20:02:58;;;;;;;24.50;15.60;;;23.30;40.50;;;;;;214159;1311;26525;-57
2021/12/25 20:08:02;;;;;;;27.60;17.00;;;23.30;40.90;;;;;;214415;1315;22796;-55
2021/12/25 20:13:10;;;;;;;26.70;17.30;;;23.30;40.50;;;;;;214656;1315;22797;-54
2021/12/25 20:18:15;;;;;;;26.90;18.20;;;23.20;40.50;;;;;;214196;1315;25340;-56
2021/12/25 20:23:23;;;;;;;29.40;18.60;;;23.20;40.50;;;;;;214349;1314;25588;-55
2021/12/25 20:28:27;;;;;;;28.30;18.20;;;23.20;40.50;;;;;;214471;1315;24435;-54
2021/12/25 20:33:33;;;;;;;31.30;19.50;;;23.20;40.50;;;;;;214204;1312;22732;-54
2021/12/25 20:38:39;;;;;;;31.20;19.90;;;23.20;40.40;;;;;;214221;1314;22799;-54
2021/12/25 20:43:52;;;;;;;29.80;18.50;;;23.30;40.30;;;;;;214316;1312;25499;-56
2021/12/25 20:49:03;;;;;;;30.20;18.70;;;23.40;40.40;;;;;;214243;1315;25374;-52
2021/12/25 20:54:08;;;;;;;30.30;19.70;;;23.40;40.40;;;;;;214451;1315;22663;-56
2021/12/25 20:59:13;;;;;;;32.10;21.40;;;23.40;40.00;;;;;;214374;1313;22687;-56
2021/12/25 21:04:18;;;;;;;31.80;20.80;;;23.40;40.00;;;;;;214553;1315;22901;-56
2021/12/25 21:09:22;;;;;;;32.70;20.80;;;23.30;40.00;;;;;;214607;1309;25888;-54
2021/12/25 21:14:28;;;;;;;36.40;22.90;;;23.20;40.00;;;;;;214602;1310;22672;-57
2021/12/25 21:19:33;;;;;;;32.30;20.90;;;23.30;40.10;;;;;;214486;1310;22588;-57
2021/12/25 21:24:37;;;;;;;34.70;21.90;;;23.20;40.10;;;;;;214568;1310;26826;-53
2021/12/25 21:29:44;;;;;;;36.60;22.20;;;23.20;40.20;;;;;;214231;1312;22770;-53
2021/12/25 21:34:53;;;;;;;37.10;22.70;;;23.20;40.40;;;;;;214116;1316;25351;-53
2021/12/25 21:39:57;;;;;;;33.20;21.70;;;23.20;40.50;;;;;;214442;1314;25535;-55
2021/12/25 21:45:05;;;;;;;31.00;20.70;;;23.20;40.10;;;;;;213940;1318;26659;-55
2021/12/25 21:50:14;;;;;;;32.60;21.40;;;23.20;40.00;;;;;;214488;1309;25418;-54
2021/12/25 21:55:19;;;;;;;34.70;21.50;;;23.20;40.00;;;;;;214399;1310;25607;-55
2021/12/25 22:00:28;;;;;;;36.90;22.50;;;23.20;40.00;;;;;;214275;1315;22563;-55
2021/12/25 22:05:34;;;;;;;35.10;23.00;;;23.20;39.80;;;;;;214570;1316;27645;-55
2021/12/25 22:10:44;;;;;;;37.30;23.50;;;23.30;39.30;;;;;;214111;1311;24311;-53
2021/12/25 22:15:48;;;;;;;32.30;21.90;;;23.30;39.60;;;;;;214241;1312;22586;-54
2021/12/25 22:20:55;;;;;;;34.90;22.80;;;23.30;39.60;;;;;;214248;1313;23129;-55
2021/12/25 22:26:03;;;;;;;35.40;22.80;;;23.30;39.70;;;;;;214243;1312;22608;-56
2021/12/25 22:31:15;;;;;;;37.30;24.10;;;23.20;39.70;;;;;;214384;1312;25687;-52
2021/12/25 22:36:31;;;;;;;34.00;23.70;;;23.20;39.70;;;;;;214150;1312;24279;-57
2021/12/25 22:41:35;;;;;;;37.70;25.50;;;23.20;39.70;;;;;;214464;1309;24287;-54
2021/12/25 22:46:40;;;;;;;36.60;24.30;;;23.10;39.70;;;;;;214250;1312;25530;-55
2021/12/25 22:51:44;;;;;;;40.10;25.10;;;23.20;40.10;;;;;;214397;1312;22566;-56
2021/12/25 22:56:51;;;;;;;37.50;25.10;;;23.20;39.70;;;;;;214270;1312;22696;-54
2021/12/25 23:01:55;;;;;;;36.30;24.30;;;23.20;39.60;;;;;;214358;1309;25442;-54
2021/12/25 23:07:00;;;;;;;41.30;24.90;;;23.20;39.80;;;;;;213927;1313;25938;-57
2021/12/25 23:12:05;;;;;;;39.60;26.20;;;23.20;39.60;;;;;;214357;1312;25522;-55
2021/12/25 23:17:09;;;;;;;38.80;25.80;;;23.20;39.60;;;;;;214380;1309;22619;-54
2021/12/25 23:22:12;;;;;;;41.10;27.70;;;23.10;39.60;;;;;;214246;1312;22604;-51
2021/12/25 23:27:16;;;;;;;42.80;26.50;;;23.10;39.50;;;;;;214205;1312;22655;-54
2021/12/25 23:32:20;;;;;;;41.30;27.10;;;23.20;39.40;;;;;;214161;1312;22593;-55
2021/12/25 23:37:24;;;;;;;44.40;27.00;;;23.30;39.40;;;;;;214364;1312;24303;-53
2021/12/25 23:42:32;;;;;;;43.30;28.30;;;23.30;39.30;;;;;;214428;1314;24305;-54
2021/12/25 23:47:35;;;;;;;45.50;29.40;;;23.20;39.30;;;;;;214244;1312;25588;-56
2021/12/25 23:52:39;;;;;;;47.60;30.20;;;23.20;39.30;;;;;;214248;1312;24254;-54
2021/12/25 23:57:43;;;;;;;42.90;27.70;;;23.20;39.40;;;;;;214374;1309;24330;-56
